createdAt,value
2022-11-08T00:04:31.547Z,12.9
2022-11-08T00:24:32.624Z,12.7
2022-11-08T00:34:32.604Z,12.6
2022-11-08T00:44:33.371Z,12.4
2022-11-08T00:54:33.772Z,12.4
2022-11-08T01:04:34.672Z,12.4
2022-11-08T01:14:35.419Z,12.4
2022-11-08T01:24:36.234Z,12.6
2022-11-08T01:34:36.403Z,12.7
2022-11-08T01:44:36.623Z,12.6
2022-11-08T01:54:37.360Z,12.5
2022-11-08T02:04:38.166Z,12.5
2022-11-08T02:14:38.902Z,12.7
2022-11-08T02:34:40.812Z,12.8
2022-11-08T02:44:41.414Z,12.8
2022-11-08T02:54:41.940Z,12.8
2022-11-08T03:14:42.406Z,12.7
2022-11-08T03:34:44.099Z,13
2022-11-08T03:44:44.765Z,12.9
2022-11-08T09:25:46.566Z,15.7
2022-11-08T09:35:46.861Z,15.8
2022-11-08T09:55:48.090Z,16.2
2022-11-08T10:05:48.715Z,16.1
2022-11-08T10:25:49.649Z,15.9
2022-11-08T10:35:49.951Z,16.2
2022-11-08T10:45:50.805Z,16.2
2022-11-08T10:55:50.924Z,16.2
2022-11-08T11:05:51.121Z,16.3
2022-11-08T11:15:52.008Z,16.2
2022-11-08T11:25:52.285Z,16.2
2022-11-08T11:45:53.199Z,16.8
2022-11-08T12:25:55.539Z,16.8
2022-11-08T12:26:00.577Z,16.8
2022-11-08T12:36:01.462Z,16.6
2022-11-08T12:46:08.622Z,17.1
2022-11-08T12:56:02.466Z,17.5
2022-11-08T13:06:02.413Z,17.9
2022-11-08T13:16:03.045Z,17.3
2022-11-08T13:26:03.669Z,17.3
2022-11-08T13:36:04.591Z,17.2
2022-11-08T13:46:04.785Z,17
2022-11-08T13:56:05.324Z,16.9
2022-11-08T14:06:05.995Z,16.8
2022-11-08T14:26:08.033Z,16.7
2022-11-08T14:46:09.873Z,16.5
2022-11-08T15:06:14.141Z,16.3
2022-11-08T15:16:12.433Z,16.2
2022-11-08T15:26:19.918Z,16.2
2022-11-08T15:36:13.389Z,16.2
2022-11-08T15:46:20.874Z,16.1
2022-11-08T15:56:14.489Z,16
2022-11-08T16:16:22.539Z,16
2022-11-08T16:26:22.982Z,15.9
2022-11-08T16:36:16.565Z,15.8
2022-11-08T16:46:16.653Z,15.8
2022-11-08T16:56:17.076Z,15.9
2022-11-08T17:06:25.059Z,16
2022-11-08T17:16:18.804Z,16
2022-11-08T17:26:26.197Z,16
2022-11-08T17:36:19.790Z,16.1
2022-11-08T17:46:20.063Z,15
2022-11-08T17:56:20.379Z,15.2
2022-11-08T18:06:20.544Z,15.5
2022-11-08T18:16:28.460Z,15.6
2022-11-08T18:36:22.866Z,15.8
2022-11-08T18:56:24.478Z,15.8
2022-11-08T19:06:24.924Z,15.9
2022-11-08T19:16:25.094Z,15.8
2022-11-08T19:26:25.213Z,15.8
2022-11-08T19:36:25.334Z,15.8
2022-11-08T19:56:43.682Z,15.7
2022-11-08T20:16:28.031Z,15.7
2022-11-08T20:26:28.588Z,16
2022-11-08T20:46:29.201Z,16.5
2022-11-08T21:06:35.467Z,16.6
2022-11-08T21:36:32.179Z,16.7
2022-11-08T21:46:32.656Z,16.5
2022-11-08T21:56:33.121Z,16.4
2022-11-08T22:06:35.590Z,16.3
2022-11-08T22:16:40.953Z,16.1
2022-11-08T22:26:41.237Z,16.1
2022-11-08T22:36:34.452Z,16
2022-11-08T22:46:34.731Z,16.1
2022-11-08T22:56:35.545Z,16.2
2022-11-08T23:06:36.450Z,16.1
2022-11-08T23:16:36.524Z,16
2022-11-08T23:36:37.198Z,15.9
